createdAt,value
2018-11-13T00:00:05.738Z,0
2018-11-13T00:01:05.220Z,0
2018-11-13T00:02:05.458Z,0
2018-11-13T00:03:05.471Z,0
2018-11-13T00:04:05.699Z,0
2018-11-13T00:05:05.461Z,0
2018-11-13T00:06:05.199Z,0
2018-11-13T00:07:05.216Z,0
2018-11-13T00:08:05.448Z,0
2018-11-13T00:09:05.177Z,0
2018-11-13T00:10:05.202Z,0
2018-11-13T00:11:05.178Z,0
2018-11-13T00:12:05.718Z,0
2018-11-13T00:13:05.432Z,0
2018-11-13T00:14:05.159Z,0
2018-11-13T00:15:05.208Z,0
2018-11-13T00:16:05.176Z,0
2018-11-13T00:17:05.167Z,0
2018-11-13T00:18:05.174Z,0
2018-11-13T00:19:05.410Z,0
2018-11-13T00:20:05.412Z,0
2018-11-13T00:21:05.152Z,0
2018-11-13T00:22:05.399Z,0
2018-11-13T00:23:05.437Z,0
2018-11-13T00:24:05.708Z,0
2018-11-13T00:25:05.402Z,0
2018-11-13T00:26:05.169Z,0
2018-11-13T00:27:05.397Z,0
2018-11-13T00:28:05.659Z,0
2018-11-13T00:29:05.383Z,0
2018-11-13T00:30:05.403Z,0
2018-11-13T00:31:05.172Z,0
2018-11-13T00:32:05.386Z,0
2018-11-13T00:33:05.171Z,0
2018-11-13T00:34:05.640Z,0
2018-11-13T00:35:05.160Z,0
2018-11-13T00:36:05.118Z,0
2018-11-13T00:37:05.123Z,0
2018-11-13T00:38:05.614Z,0
2018-11-13T00:39:05.200Z,0
2018-11-13T00:40:05.374Z,0
2018-11-13T00:41:05.383Z,0
2018-11-13T00:42:05.817Z,0
2018-11-13T00:43:05.099Z,0
2018-11-13T00:44:05.375Z,0
2018-11-13T00:45:05.349Z,0
2018-11-13T00:46:05.640Z,0
2018-11-13T00:47:05.400Z,0
2018-11-13T00:48:06.136Z,0
2018-11-13T00:49:05.878Z,0
2018-11-13T00:50:05.073Z,0
2018-11-13T00:51:05.778Z,0
2018-11-13T00:52:05.069Z,0
2018-11-13T00:53:05.330Z,0
2018-11-13T00:54:05.066Z,0
2018-11-13T00:55:05.735Z,0
2018-11-13T00:56:05.583Z,0
2018-11-13T00:57:05.307Z,0
2018-11-13T00:58:05.058Z,0
2018-11-13T00:59:04.780Z,0
2018-11-13T01:00:05.584Z,0
2018-11-13T01:01:05.565Z,0
2018-11-13T01:02:05.966Z,0
2018-11-13T01:03:05.522Z,0
2018-11-13T01:04:05.021Z,0
2018-11-13T01:05:05.138Z,0
2018-11-13T01:06:05.580Z,0
2018-11-13T01:07:04.757Z,0
2018-11-13T01:08:05.006Z,0
2018-11-13T01:09:04.775Z,0
2018-11-13T01:10:05.047Z,0
2018-11-13T01:11:05.535Z,0
2018-11-13T01:12:05.818Z,0
2018-11-13T01:13:05.294Z,0
2018-11-13T01:14:05.011Z,0
2018-11-13T01:15:05.521Z,0
2018-11-13T01:16:05.517Z,0
2018-11-13T01:17:04.992Z,0
2018-11-13T01:18:05.551Z,0
2018-11-13T01:19:05.000Z,0
2018-11-13T01:20:05.291Z,0
2018-11-13T01:21:05.266Z,0
2018-11-13T01:22:05.251Z,0
2018-11-13T01:23:05.512Z,0
2018-11-13T01:24:06.389Z,0
2018-11-13T01:25:05.282Z,0
2018-11-13T01:26:04.981Z,0
2018-11-13T01:27:05.493Z,0
2018-11-13T01:28:05.303Z,0
2018-11-13T01:29:05.479Z,0
2018-11-13T01:30:05.231Z,0
2018-11-13T01:31:05.518Z,0
2018-11-13T01:32:05.480Z,0
2018-11-13T01:33:05.491Z,0
2018-11-13T01:34:05.189Z,0
2018-11-13T01:35:05.452Z,0
2018-11-13T01:36:05.204Z,0
2018-11-13T01:37:05.185Z,0
2018-11-13T01:38:05.177Z,0
2018-11-13T01:39:05.460Z,0
2018-11-13T01:40:04.688Z,0
2018-11-13T01:41:05.247Z,0
2018-11-13T01:42:04.914Z,0
2018-11-13T01:43:04.918Z,0
2018-11-13T01:44:05.414Z,0
2018-11-13T01:45:05.157Z,0
2018-11-13T01:46:04.929Z,0
2018-11-13T01:47:05.406Z,0
2018-11-13T01:48:05.607Z,0
2018-11-13T01:49:05.435Z,0
2018-11-13T01:50:04.935Z,0
2018-11-13T01:51:05.145Z,0
2018-11-13T01:52:04.915Z,0
2018-11-13T01:53:05.126Z,0
2018-11-13T01:54:05.698Z,0
2018-11-13T01:55:04.884Z,0
2018-11-13T01:56:04.865Z,0
2018-11-13T01:57:04.991Z,0
2018-11-13T01:58:04.865Z,0
2018-11-13T01:59:04.891Z,0
2018-11-13T02:00:04.881Z,0
2018-11-13T02:01:05.131Z,0
2018-11-13T02:02:04.862Z,0
2018-11-13T02:03:05.106Z,0
2018-11-13T02:04:05.396Z,0
2018-11-13T02:05:05.112Z,0
2018-11-13T02:06:04.591Z,0
2018-11-13T02:07:05.373Z,0
2018-11-13T02:08:05.107Z,0
2018-11-13T02:09:04.576Z,0
2018-11-13T02:10:05.125Z,0
2018-11-13T02:11:05.081Z,0
2018-11-13T02:12:05.380Z,0
2018-11-13T02:13:04.580Z,0
2018-11-13T02:14:05.073Z,0
2018-11-13T02:15:05.076Z,0
2018-11-13T02:16:05.349Z,0
2018-11-13T02:17:04.799Z,0
2018-11-13T02:18:05.056Z,0
2018-11-13T02:19:05.046Z,0
2018-11-13T02:20:05.324Z,0
2018-11-13T02:21:05.053Z,0
2018-11-13T02:22:05.056Z,0
2018-11-13T02:23:04.802Z,0
2018-11-13T02:24:05.064Z,0
2018-11-13T02:25:05.074Z,0
2018-11-13T02:26:05.051Z,0
2018-11-13T02:27:05.313Z,0
2018-11-13T02:28:05.030Z,0
2018-11-13T02:29:05.567Z,0
2018-11-13T02:30:05.323Z,0
2018-11-13T02:31:05.313Z,0
2018-11-13T02:32:05.282Z,0
2018-11-13T02:33:05.280Z,0
2018-11-13T02:34:05.021Z,0
2018-11-13T02:35:04.797Z,0
2018-11-13T02:36:05.282Z,0
2018-11-13T02:37:05.041Z,0
2018-11-13T02:38:04.780Z,0
2018-11-13T02:39:05.283Z,0
2018-11-13T02:40:05.287Z,0
2018-11-13T02:41:05.044Z,0
2018-11-13T02:42:05.247Z,0
2018-11-13T02:43:04.750Z,0
2018-11-13T02:44:04.495Z,0
2018-11-13T02:45:05.013Z,0
2018-11-13T02:46:05.014Z,0
2018-11-13T02:47:04.475Z,0
2018-11-13T02:48:05.259Z,0
2018-11-13T02:49:06.593Z,0
2018-11-13T02:50:05.246Z,0
2018-11-13T02:51:04.982Z,0
2018-11-13T02:52:04.973Z,0
2018-11-13T02:53:04.970Z,0
2018-11-13T02:54:05.226Z,0
2018-11-13T02:55:04.718Z,0
2018-11-13T02:56:04.709Z,0
2018-11-13T02:57:05.222Z,0
2018-11-13T02:58:04.478Z,0
2018-11-13T02:59:04.702Z,0
2018-11-13T03:00:05.236Z,0
2018-11-13T03:01:04.698Z,0
2018-11-13T03:02:04.432Z,0
2018-11-13T03:03:04.954Z,0
2018-11-13T03:04:05.200Z,0
2018-11-13T03:05:05.199Z,0
2018-11-13T03:06:04.934Z,0
2018-11-13T03:07:04.928Z,0
2018-11-13T03:08:04.936Z,0
2018-11-13T03:09:05.216Z,0
2018-11-13T03:10:05.195Z,0
2018-11-13T03:11:04.952Z,0
2018-11-13T03:12:04.662Z,0
2018-11-13T03:13:05.185Z,0
2018-11-13T03:14:05.312Z,0
2018-11-13T03:15:04.931Z,0
2018-11-13T03:16:05.187Z,0
2018-11-13T03:17:04.910Z,0
2018-11-13T03:18:05.171Z,0
2018-11-13T03:19:04.909Z,0
2018-11-13T03:20:04.656Z,0
2018-11-13T03:21:04.663Z,0
2018-11-13T03:22:05.174Z,0
2018-11-13T03:23:04.898Z,0
2018-11-13T03:24:04.900Z,0
2018-11-13T03:25:05.149Z,0
2018-11-13T03:26:05.157Z,0
2018-11-13T03:27:04.873Z,0
2018-11-13T03:28:05.167Z,0
2018-11-13T03:29:05.188Z,0
2018-11-13T03:30:04.869Z,0
2018-11-13T03:31:04.911Z,0
2018-11-13T03:32:05.174Z,0
2018-11-13T03:33:05.175Z,0
2018-11-13T03:34:05.131Z,0
2018-11-13T03:35:04.644Z,0
2018-11-13T03:36:04.864Z,0
2018-11-13T03:37:04.848Z,0
2018-11-13T03:38:04.586Z,0
2018-11-13T03:39:04.603Z,0
2018-11-13T03:40:04.857Z,0
2018-11-13T03:41:04.848Z,0
2018-11-13T03:42:05.092Z,0
2018-11-13T03:43:05.119Z,0
2018-11-13T03:44:05.106Z,0
2018-11-13T03:45:05.117Z,0
2018-11-13T03:46:04.858Z,0
2018-11-13T03:47:04.854Z,0
2018-11-13T03:48:04.577Z,0
2018-11-13T03:49:05.077Z,0
2018-11-13T03:50:04.850Z,0
2018-11-13T03:51:04.855Z,0
2018-11-13T03:52:04.579Z,0
2018-11-13T03:53:05.080Z,0
2018-11-13T03:54:05.064Z,0
2018-11-13T03:55:04.305Z,0
2018-11-13T03:56:04.553Z,0
2018-11-13T03:57:05.066Z,0
2018-11-13T03:58:05.095Z,0
2018-11-13T03:59:04.547Z,0
2018-11-13T04:00:04.832Z,0
2018-11-13T04:01:04.307Z,0
2018-11-13T04:02:05.054Z,0
2018-11-13T04:03:04.276Z,0
2018-11-13T04:04:04.794Z,0
2018-11-13T04:05:04.291Z,0
2018-11-13T04:06:04.558Z,0
2018-11-13T04:07:04.796Z,0
2018-11-13T04:08:04.806Z,0
2018-11-13T04:09:04.795Z,0
2018-11-13T04:10:04.526Z,0
2018-11-13T04:11:05.062Z,0
2018-11-13T04:12:05.039Z,0
2018-11-13T04:13:04.778Z,0
2018-11-13T04:14:04.772Z,0
2018-11-13T04:15:05.056Z,0
2018-11-13T04:16:04.262Z,0
2018-11-13T04:17:04.761Z,0
2018-11-13T04:18:04.767Z,0
2018-11-13T04:19:04.999Z,0
2018-11-13T04:20:04.760Z,0
2018-11-13T04:21:05.037Z,0
2018-11-13T04:22:04.759Z,0
2018-11-13T04:23:04.766Z,0
2018-11-13T04:24:04.496Z,0
2018-11-13T04:25:04.750Z,0
2018-11-13T04:26:04.752Z,0
2018-11-13T04:27:04.499Z,0
2018-11-13T04:28:04.485Z,0
2018-11-13T04:29:04.215Z,0
2018-11-13T04:30:04.734Z,0
2018-11-13T04:31:04.730Z,0
2018-11-13T04:32:04.755Z,0
2018-11-13T04:33:04.741Z,0
2018-11-13T04:34:04.469Z,0
2018-11-13T04:35:04.200Z,0
2018-11-13T04:36:04.719Z,0
2018-11-13T04:37:04.478Z,0
2018-11-13T04:38:04.462Z,0
2018-11-13T04:39:04.706Z,0
2018-11-13T04:40:04.722Z,0
2018-11-13T04:41:04.706Z,0
2018-11-13T04:42:04.714Z,0
2018-11-13T04:43:04.979Z,0
2018-11-13T04:44:04.705Z,0
2018-11-13T04:45:04.185Z,0
2018-11-13T04:46:04.435Z,0
2018-11-13T04:47:04.956Z,0
2018-11-13T04:48:04.675Z,0
2018-11-13T04:49:06.326Z,0
2018-11-13T04:50:04.668Z,0
2018-11-13T04:51:04.437Z,0
2018-11-13T04:52:04.414Z,0
2018-11-13T04:53:04.416Z,0
2018-11-13T04:54:04.927Z,0
2018-11-13T04:55:04.711Z,0
2018-11-13T04:56:04.935Z,0
2018-11-13T04:57:04.672Z,0
2018-11-13T04:58:04.658Z,0
2018-11-13T04:59:04.397Z,0
2018-11-13T05:00:04.927Z,0
2018-11-13T05:01:04.666Z,0
2018-11-13T05:02:04.390Z,0
2018-11-13T05:03:04.987Z,0
2018-11-13T05:04:04.697Z,0
2018-11-13T05:05:04.720Z,0
2018-11-13T05:06:04.392Z,0
2018-11-13T05:07:04.632Z,0
2018-11-13T05:08:04.673Z,0
2018-11-13T05:09:04.893Z,0
2018-11-13T05:10:04.800Z,0
2018-11-13T05:11:04.395Z,0
2018-11-13T05:12:04.365Z,0
2018-11-13T05:13:04.372Z,0
2018-11-13T05:14:04.379Z,0
2018-11-13T05:15:04.374Z,0
2018-11-13T05:16:04.609Z,0
2018-11-13T05:17:04.366Z,0
2018-11-13T05:18:04.358Z,0
2018-11-13T05:19:04.504Z,0
2018-11-13T05:20:04.349Z,0
2018-11-13T05:21:04.359Z,0
2018-11-13T05:22:04.079Z,0
2018-11-13T05:23:05.123Z,0
2018-11-13T05:24:04.589Z,0
2018-11-13T05:25:04.848Z,0
2018-11-13T05:26:04.603Z,0
2018-11-13T05:27:04.328Z,0
2018-11-13T05:28:04.612Z,0
2018-11-13T05:29:04.837Z,0
2018-11-13T05:30:04.859Z,0
2018-11-13T05:31:04.339Z,0
2018-11-13T05:32:04.332Z,0
2018-11-13T05:33:04.557Z,0
2018-11-13T05:34:04.638Z,0
2018-11-13T05:35:04.819Z,0
2018-11-13T05:36:04.836Z,0
2018-11-13T05:37:04.590Z,0
2018-11-13T05:38:04.562Z,0
2018-11-13T05:39:04.300Z,0
2018-11-13T05:40:04.308Z,0
2018-11-13T05:41:04.279Z,0
2018-11-13T05:42:04.541Z,0
2018-11-13T05:43:04.538Z,0
2018-11-13T05:44:04.812Z,0
2018-11-13T05:45:04.797Z,0
2018-11-13T05:46:04.539Z,0
2018-11-13T05:47:04.981Z,0
2018-11-13T05:48:04.519Z,0
2018-11-13T05:49:05.602Z,0
2018-11-13T05:50:04.276Z,0
2018-11-13T05:51:04.274Z,0
2018-11-13T05:52:04.265Z,0
2018-11-13T05:53:04.772Z,0
2018-11-13T05:54:04.605Z,0
2018-11-13T05:55:04.544Z,0
2018-11-13T05:56:04.521Z,0
2018-11-13T05:57:04.262Z,0
2018-11-13T05:58:04.779Z,0
2018-11-13T05:59:04.251Z,0
2018-11-13T06:00:04.414Z,0
2018-11-13T06:01:04.770Z,0
2018-11-13T06:02:04.237Z,0
2018-11-13T06:03:04.483Z,0
2018-11-13T06:04:04.716Z,0
2018-11-13T06:05:04.744Z,0
2018-11-13T06:06:04.464Z,0
2018-11-13T06:07:04.471Z,0
2018-11-13T06:08:04.217Z,0
2018-11-13T06:09:04.234Z,0
2018-11-13T06:10:04.736Z,0
2018-11-13T06:11:04.450Z,4
2018-11-13T06:12:04.235Z,4
2018-11-13T06:13:04.464Z,4
2018-11-13T06:14:04.663Z,4
2018-11-13T06:15:04.210Z,4
2018-11-13T06:16:04.443Z,0
2018-11-13T06:17:04.451Z,4
2018-11-13T06:18:04.838Z,4
2018-11-13T06:19:04.706Z,4
2018-11-13T06:20:04.444Z,4
2018-11-13T06:21:04.435Z,4
2018-11-13T06:22:04.220Z,8
2018-11-13T06:23:04.731Z,4
2018-11-13T06:24:04.424Z,8
2018-11-13T06:25:04.489Z,8
2018-11-13T06:26:04.434Z,8
2018-11-13T06:27:04.418Z,12
2018-11-13T06:28:04.158Z,12
2018-11-13T06:29:04.431Z,8
2018-11-13T06:30:05.204Z,12
2018-11-13T06:31:04.420Z,12
2018-11-13T06:32:04.653Z,16
2018-11-13T06:33:03.883Z,16
2018-11-13T06:34:04.128Z,20
2018-11-13T06:35:04.390Z,20
2018-11-13T06:36:04.383Z,24
2018-11-13T06:37:04.377Z,28
2018-11-13T06:38:04.119Z,28
2018-11-13T06:39:04.198Z,32
2018-11-13T06:40:04.637Z,28
2018-11-13T06:41:03.857Z,28
2018-11-13T06:42:04.095Z,32
2018-11-13T06:43:04.357Z,32
2018-11-13T06:44:04.366Z,36
2018-11-13T06:45:04.360Z,32
2018-11-13T06:46:04.111Z,36
2018-11-13T06:47:04.070Z,36
2018-11-13T06:48:04.327Z,36
2018-11-13T06:49:04.665Z,40
2018-11-13T06:50:07.750Z,44
2018-11-13T06:51:04.324Z,40
2018-11-13T06:52:04.324Z,44
2018-11-13T06:53:04.302Z,44
2018-11-13T06:54:04.303Z,44
2018-11-13T06:55:04.074Z,48
2018-11-13T06:56:04.058Z,48
2018-11-13T06:57:04.321Z,56
2018-11-13T06:58:04.051Z,60
2018-11-13T06:59:04.325Z,72
2018-11-13T07:00:04.573Z,76
2018-11-13T07:01:04.576Z,76
2018-11-13T07:02:04.303Z,76
2018-11-13T07:03:04.307Z,84
2018-11-13T07:04:04.065Z,96
2018-11-13T07:05:04.133Z,104
2018-11-13T07:06:04.083Z,108
2018-11-13T07:07:04.052Z,116
2018-11-13T07:08:03.770Z,120
2018-11-13T07:09:04.531Z,128
2018-11-13T07:10:04.557Z,136
2018-11-13T07:11:04.798Z,144
2018-11-13T07:12:04.281Z,160
2018-11-13T07:13:03.812Z,180
2018-11-13T07:14:04.014Z,216
2018-11-13T07:15:04.021Z,240
2018-11-13T07:16:04.267Z,260
2018-11-13T07:17:04.267Z,280
2018-11-13T07:18:04.280Z,296
2018-11-13T07:19:03.795Z,304
2018-11-13T07:20:04.509Z,300
2018-11-13T07:21:04.949Z,324
2018-11-13T07:22:04.000Z,368
2018-11-13T07:23:03.992Z,432
2018-11-13T07:24:04.500Z,480
2018-11-13T07:25:03.982Z,516
2018-11-13T07:26:04.509Z,536
2018-11-13T07:27:04.384Z,528
2018-11-13T07:28:04.054Z,500
2018-11-13T07:29:03.962Z,456
2018-11-13T07:30:04.235Z,424
2018-11-13T07:31:04.473Z,412
2018-11-13T07:32:03.709Z,408
2018-11-13T07:33:04.223Z,396
2018-11-13T07:34:04.206Z,404
2018-11-13T07:35:03.938Z,428
2018-11-13T07:36:04.219Z,448
2018-11-13T07:37:04.205Z,440
2018-11-13T07:38:04.193Z,404
2018-11-13T07:39:03.675Z,388
2018-11-13T07:40:04.178Z,384
2018-11-13T07:41:04.456Z,388
2018-11-13T07:42:03.926Z,396
2018-11-13T07:43:04.179Z,404
2018-11-13T07:44:03.915Z,412
2018-11-13T07:45:03.909Z,460
2018-11-13T07:46:04.158Z,504
2018-11-13T07:47:04.476Z,508
2018-11-13T07:48:04.696Z,516
2018-11-13T07:49:04.417Z,548
2018-11-13T07:50:04.159Z,592
2018-11-13T07:51:03.997Z,644
2018-11-13T07:52:04.151Z,708
2018-11-13T07:53:03.877Z,764
2018-11-13T07:54:04.496Z,816
2018-11-13T07:55:03.636Z,884
2018-11-13T07:56:04.124Z,976
2018-11-13T07:57:03.887Z,1112
2018-11-13T07:58:03.870Z,1264
2018-11-13T07:59:03.865Z,1316
2018-11-13T08:00:03.877Z,1300
2018-11-13T08:01:04.433Z,1328
2018-11-13T08:02:03.593Z,1356
2018-11-13T08:03:04.367Z,1364
2018-11-13T08:04:04.374Z,1376
2018-11-13T08:05:03.636Z,1284
2018-11-13T08:06:04.410Z,1164
2018-11-13T08:07:04.111Z,1108
2018-11-13T08:08:03.603Z,1076
2018-11-13T08:09:04.370Z,1048
2018-11-13T08:10:04.073Z,1052
2018-11-13T08:11:03.825Z,1072
2018-11-13T08:12:04.334Z,1124
2018-11-13T08:13:05.020Z,1184
2018-11-13T08:14:03.821Z,1264
2018-11-13T08:15:04.093Z,1380
2018-11-13T08:16:04.081Z,1472
2018-11-13T08:17:03.808Z,1480
2018-11-13T08:18:03.824Z,1356
2018-11-13T08:19:04.452Z,1212
2018-11-13T08:20:04.061Z,1104
2018-11-13T08:21:04.140Z,1048
2018-11-13T08:22:04.289Z,1076
2018-11-13T08:23:04.073Z,1096
2018-11-13T08:24:03.809Z,1092
2018-11-13T08:25:04.066Z,1100
2018-11-13T08:26:03.805Z,1124
2018-11-13T08:27:04.747Z,1176
2018-11-13T08:28:04.409Z,1268
2018-11-13T08:29:04.311Z,1360
2018-11-13T08:30:04.042Z,1428
2018-11-13T08:31:04.021Z,1496
2018-11-13T08:32:04.316Z,1616
2018-11-13T08:33:04.084Z,1688
2018-11-13T08:34:03.762Z,1756
2018-11-13T08:35:04.512Z,1840
2018-11-13T08:36:04.031Z,1840
2018-11-13T08:37:04.029Z,1816
2018-11-13T08:38:03.746Z,1828
2018-11-13T08:39:03.485Z,1856
2018-11-13T08:40:03.491Z,1812
2018-11-13T08:41:04.264Z,1636
2018-11-13T08:42:04.255Z,1392
2018-11-13T08:43:04.246Z,1192
2018-11-13T08:44:04.535Z,1088
2018-11-13T08:45:04.257Z,1092
2018-11-13T08:46:03.994Z,1168
2018-11-13T08:47:04.013Z,1256
2018-11-13T08:48:03.717Z,1352
2018-11-13T08:49:04.216Z,1476
2018-11-13T08:50:03.726Z,1608
2018-11-13T08:51:05.993Z,1668
2018-11-13T08:52:03.764Z,1640
2018-11-13T08:53:03.963Z,1600
2018-11-13T08:54:04.235Z,1600
2018-11-13T08:55:04.208Z,1664
2018-11-13T08:56:03.701Z,1740
2018-11-13T08:57:04.226Z,1768
2018-11-13T08:58:03.934Z,1800
2018-11-13T08:59:04.458Z,1856
2018-11-13T09:00:03.965Z,1920
2018-11-13T09:01:04.183Z,1992
2018-11-13T09:02:04.204Z,2052
2018-11-13T09:03:03.692Z,2104
2018-11-13T09:04:03.932Z,2124
2018-11-13T09:05:03.837Z,2108
2018-11-13T09:06:04.175Z,2040
2018-11-13T09:07:03.944Z,1960
2018-11-13T09:08:03.917Z,1948
2018-11-13T09:09:03.652Z,2008
2018-11-13T09:10:03.659Z,2008
2018-11-13T09:11:03.900Z,1896
2018-11-13T09:12:04.714Z,1836
2018-11-13T09:13:03.902Z,1900
2018-11-13T09:14:03.896Z,2076
2018-11-13T09:15:03.893Z,2240
2018-11-13T09:16:03.903Z,2316
2018-11-13T09:17:04.145Z,2320
2018-11-13T09:18:04.055Z,2320
2018-11-13T09:19:04.894Z,2332
2018-11-13T09:20:03.611Z,2340
2018-11-13T09:21:04.944Z,2364
2018-11-13T09:22:03.880Z,2352
2018-11-13T09:23:03.862Z,2328
2018-11-13T09:24:03.605Z,2344
2018-11-13T09:25:03.604Z,2416
2018-11-13T09:26:03.599Z,2488
2018-11-13T09:27:04.127Z,2492
2018-11-13T09:28:03.890Z,2468
2018-11-13T09:29:03.849Z,2440
2018-11-13T09:30:04.325Z,2444
2018-11-13T09:31:04.806Z,2448
2018-11-13T09:32:03.320Z,2348
2018-11-13T09:33:03.611Z,2216
2018-11-13T09:34:04.146Z,2092
2018-11-13T09:35:03.881Z,2000
2018-11-13T09:36:03.655Z,1968
2018-11-13T09:37:04.116Z,1964
2018-11-13T09:38:03.821Z,1976
2018-11-13T09:39:03.550Z,1972
2018-11-13T09:40:03.820Z,2004
2018-11-13T09:41:03.573Z,2084
2018-11-13T09:42:03.810Z,2108
2018-11-13T09:43:03.822Z,2168
2018-11-13T09:44:03.823Z,2304
2018-11-13T09:45:04.641Z,2484
2018-11-13T09:46:04.150Z,2628
2018-11-13T09:47:04.060Z,2716
2018-11-13T09:48:04.046Z,2764
2018-11-13T09:49:03.792Z,2824
2018-11-13T09:50:03.795Z,2848
2018-11-13T09:51:03.806Z,2824
2018-11-13T09:52:04.093Z,2720
2018-11-13T09:53:04.117Z,2564
2018-11-13T09:54:03.534Z,2412
2018-11-13T09:55:03.522Z,2316
2018-11-13T09:56:03.511Z,2272
2018-11-13T09:57:03.511Z,2228
2018-11-13T09:58:03.512Z,2184
2018-11-13T09:59:04.392Z,2124
2018-11-13T10:00:04.076Z,2104
2018-11-13T10:01:05.129Z,2216
2018-11-13T10:02:06.989Z,2332
2018-11-13T10:03:05.274Z,2488
2018-11-13T10:04:08.181Z,2640
2018-11-13T10:05:05.227Z,2776
2018-11-13T10:06:03.619Z,2880
2018-11-13T10:07:03.588Z,2952
2018-11-13T10:08:03.476Z,3036
2018-11-13T10:09:03.743Z,3120
2018-11-13T10:10:03.818Z,3184
2018-11-13T10:11:03.731Z,3116
2018-11-13T10:12:03.460Z,3048
2018-11-13T10:13:03.466Z,3072
2018-11-13T10:14:03.731Z,2988
2018-11-13T10:15:03.972Z,2904
2018-11-13T10:16:03.465Z,2876
2018-11-13T10:17:03.933Z,2920
2018-11-13T10:18:03.892Z,2992
2018-11-13T10:19:03.988Z,3080
2018-11-13T10:20:03.479Z,3100
2018-11-13T10:21:03.703Z,3068
2018-11-13T10:22:05.278Z,3116
2018-11-13T10:23:03.968Z,3124
2018-11-13T10:24:03.428Z,3116
2018-11-13T10:25:03.716Z,2992
2018-11-13T10:26:03.444Z,2860
2018-11-13T10:27:03.778Z,2788
2018-11-13T10:28:03.727Z,2668
2018-11-13T10:29:03.938Z,2612
2018-11-13T10:30:04.307Z,2644
2018-11-13T10:31:03.410Z,2624
2018-11-13T10:32:03.683Z,2632
2018-11-13T10:33:03.430Z,2640
2018-11-13T10:34:03.932Z,2672
2018-11-13T10:35:03.669Z,2780
2018-11-13T10:36:03.409Z,2740
2018-11-13T10:37:03.741Z,2688
2018-11-13T10:38:03.916Z,2680
2018-11-13T10:39:03.647Z,2728
2018-11-13T10:40:04.188Z,2784
2018-11-13T10:41:04.338Z,2752
2018-11-13T10:42:03.653Z,2756
2018-11-13T10:43:03.412Z,2756
2018-11-13T10:44:03.633Z,2752
2018-11-13T10:45:03.646Z,2852
2018-11-13T10:46:03.656Z,2968
2018-11-13T10:47:03.897Z,3060
2018-11-13T10:48:03.640Z,3232
2018-11-13T10:49:04.214Z,3368
2018-11-13T10:50:03.769Z,3292
2018-11-13T10:51:03.382Z,3088
2018-11-13T10:52:03.658Z,2892
2018-11-13T10:53:03.890Z,2760
2018-11-13T10:54:03.369Z,2604
2018-11-13T10:55:03.666Z,2548
2018-11-13T10:56:03.363Z,2628
2018-11-13T10:57:03.608Z,2728
2018-11-13T10:58:03.357Z,2712
2018-11-13T10:59:03.603Z,2632
2018-11-13T11:00:03.612Z,2656
2018-11-13T11:01:03.593Z,2700
2018-11-13T11:02:03.841Z,2740
2018-11-13T11:03:03.955Z,2852
2018-11-13T11:04:03.331Z,2992
2018-11-13T11:05:03.846Z,3112
2018-11-13T11:06:03.597Z,3208
2018-11-13T11:07:03.587Z,3296
2018-11-13T11:08:03.571Z,3272
2018-11-13T11:09:03.847Z,3192
2018-11-13T11:10:03.828Z,3188
2018-11-13T11:11:03.564Z,3224
2018-11-13T11:12:03.070Z,3208
2018-11-13T11:13:03.715Z,3156
2018-11-13T11:14:05.250Z,3184
2018-11-13T11:15:03.866Z,3296
2018-11-13T11:16:03.882Z,3388
2018-11-13T11:17:03.333Z,3476
2018-11-13T11:18:03.430Z,3384
2018-11-13T11:19:03.633Z,3088
2018-11-13T11:20:03.571Z,2976
2018-11-13T11:21:03.534Z,2932
2018-11-13T11:22:03.857Z,2972
2018-11-13T11:23:03.850Z,3116
2018-11-13T11:24:03.801Z,2916
2018-11-13T11:25:03.456Z,2620
2018-11-13T11:26:03.557Z,2436
2018-11-13T11:27:03.285Z,2320
2018-11-13T11:28:04.136Z,2228
2018-11-13T11:29:03.533Z,2100
2018-11-13T11:30:03.796Z,1968
2018-11-13T11:31:03.423Z,1908
2018-11-13T11:32:03.287Z,1968
2018-11-13T11:33:03.535Z,2192
2018-11-13T11:34:03.518Z,2544
2018-11-13T11:35:03.273Z,2952
2018-11-13T11:36:03.792Z,3296
2018-11-13T11:37:03.277Z,3412
2018-11-13T11:38:03.008Z,3412
2018-11-13T11:39:04.913Z,3344
2018-11-13T11:40:03.572Z,3128
2018-11-13T11:41:03.536Z,2964
2018-11-13T11:42:03.276Z,2776
2018-11-13T11:43:03.514Z,2528
2018-11-13T11:44:03.490Z,2460
2018-11-13T11:45:03.548Z,2556
2018-11-13T11:46:03.754Z,2616
2018-11-13T11:47:03.744Z,2468
2018-11-13T11:48:03.490Z,2308
2018-11-13T11:49:03.234Z,2316
2018-11-13T11:50:03.257Z,2524
2018-11-13T11:51:03.502Z,2692
2018-11-13T11:52:03.743Z,3020
2018-11-13T11:53:03.242Z,3500
2018-11-13T11:54:04.006Z,3652
2018-11-13T11:55:03.498Z,3044
2018-11-13T11:56:03.480Z,2540
2018-11-13T11:57:03.254Z,2572
2018-11-13T11:58:03.489Z,2616
2018-11-13T11:59:03.467Z,2552
2018-11-13T12:00:03.470Z,2556
2018-11-13T12:01:03.205Z,2664
2018-11-13T12:02:03.812Z,2848
2018-11-13T12:03:03.764Z,2936
2018-11-13T12:04:03.190Z,2984
2018-11-13T12:05:03.737Z,3128
2018-11-13T12:06:03.473Z,3268
2018-11-13T12:07:03.306Z,3368
2018-11-13T12:08:03.452Z,3116
2018-11-13T12:09:03.194Z,2892
2018-11-13T12:10:03.211Z,2964
2018-11-13T12:11:03.476Z,3268
2018-11-13T12:12:03.500Z,3624
2018-11-13T12:13:03.445Z,3664
2018-11-13T12:14:03.461Z,3648
2018-11-13T12:15:03.466Z,3564
2018-11-13T12:16:03.189Z,3416
2018-11-13T12:17:03.429Z,3300
2018-11-13T12:18:03.177Z,3208
2018-11-13T12:19:03.818Z,3096
2018-11-13T12:20:03.706Z,3016
2018-11-13T12:21:03.510Z,3036
2018-11-13T12:22:03.959Z,3028
2018-11-13T12:23:03.433Z,3068
2018-11-13T12:24:03.420Z,3384
2018-11-13T12:25:03.169Z,3896
2018-11-13T12:26:03.964Z,4384
2018-11-13T12:27:03.209Z,4780
2018-11-13T12:28:03.426Z,4928
2018-11-13T12:29:03.163Z,4644
2018-11-13T12:30:03.786Z,4440
2018-11-13T12:31:03.407Z,4492
2018-11-13T12:32:03.154Z,4332
2018-11-13T12:33:03.668Z,4220
2018-11-13T12:34:03.459Z,4308
2018-11-13T12:35:03.657Z,4496
2018-11-13T12:36:03.148Z,4644
2018-11-13T12:37:03.155Z,4824
2018-11-13T12:38:03.376Z,4968
2018-11-13T12:39:03.145Z,5004
2018-11-13T12:40:02.926Z,5020
2018-11-13T12:41:04.191Z,5016
2018-11-13T12:42:03.435Z,4896
2018-11-13T12:43:03.381Z,4564
2018-11-13T12:44:03.122Z,4180
2018-11-13T12:45:03.393Z,3708
2018-11-13T12:46:03.154Z,3528
2018-11-13T12:47:03.203Z,3600
2018-11-13T12:48:03.128Z,3748
2018-11-13T12:49:04.571Z,4032
2018-11-13T12:50:03.705Z,4344
2018-11-13T12:51:03.370Z,4792
2018-11-13T12:52:04.662Z,5836
2018-11-13T12:53:03.618Z,6024
2018-11-13T12:54:05.569Z,5688
2018-11-13T12:55:03.113Z,5396
2018-11-13T12:56:05.771Z,4988
2018-11-13T12:57:03.169Z,4600
2018-11-13T12:58:04.821Z,4020
2018-11-13T12:59:03.380Z,3632
2018-11-13T13:00:03.119Z,3336
2018-11-13T13:01:03.371Z,3124
2018-11-13T13:02:04.939Z,3272
2018-11-13T13:03:02.843Z,3596
2018-11-13T13:04:03.106Z,3088
2018-11-13T13:05:03.100Z,3020
2018-11-13T13:06:03.346Z,3172
2018-11-13T13:07:02.824Z,3272
2018-11-13T13:08:03.093Z,3500
2018-11-13T13:09:03.081Z,3672
2018-11-13T13:10:03.366Z,3768
2018-11-13T13:11:03.383Z,3820
2018-11-13T13:12:03.101Z,3500
2018-11-13T13:13:03.609Z,3440
2018-11-13T13:14:03.329Z,3432
2018-11-13T13:15:04.164Z,3536
2018-11-13T13:16:03.373Z,3564
2018-11-13T13:17:03.331Z,3420
2018-11-13T13:18:03.373Z,3360
2018-11-13T13:19:03.834Z,3276
2018-11-13T13:20:03.074Z,3124
2018-11-13T13:21:03.333Z,2936
2018-11-13T13:22:03.439Z,2728
2018-11-13T13:23:03.331Z,2556
2018-11-13T13:24:03.595Z,2496
2018-11-13T13:25:03.333Z,2476
2018-11-13T13:26:03.674Z,2376
2018-11-13T13:27:03.326Z,2360
2018-11-13T13:28:03.602Z,2460
2018-11-13T13:29:03.326Z,2724
2018-11-13T13:30:03.579Z,3000
2018-11-13T13:31:03.310Z,3092
2018-11-13T13:32:03.993Z,3372
2018-11-13T13:33:02.789Z,3448
2018-11-13T13:34:03.033Z,3520
2018-11-13T13:35:03.038Z,3620
2018-11-13T13:36:02.773Z,3632
2018-11-13T13:37:03.560Z,3632
2018-11-13T13:38:03.046Z,3684
2018-11-13T13:39:03.281Z,3908
2018-11-13T13:40:03.056Z,3412
2018-11-13T13:41:03.298Z,3316
2018-11-13T13:42:03.292Z,3120
2018-11-13T13:43:03.560Z,3036
2018-11-13T13:44:03.296Z,3060
2018-11-13T13:45:03.290Z,3124
2018-11-13T13:46:03.562Z,2908
2018-11-13T13:47:03.556Z,2692
2018-11-13T13:48:02.765Z,2748
2018-11-13T13:49:03.296Z,2948
2018-11-13T13:50:03.028Z,3076
2018-11-13T13:51:03.555Z,2956
2018-11-13T13:52:03.265Z,2832
2018-11-13T13:53:03.530Z,2664
2018-11-13T13:54:03.902Z,2576
2018-11-13T13:55:03.024Z,2544
2018-11-13T13:56:03.304Z,2568
2018-11-13T13:57:03.320Z,2692
2018-11-13T13:58:03.308Z,2792
2018-11-13T13:59:03.517Z,2848
2018-11-13T14:00:04.849Z,2956
2018-11-13T14:01:03.826Z,2940